sensor_id;sensor_type;location;lat;lon;timestamp;pressure;altitude;pressure_sealevel;temperature;humidity
22580;BME280;11456;47.030;15.396;2022-09-06T00:01:13;98032.28;;;19.09;100.00
22580;BME280;11456;47.030;15.396;2022-09-06T00:03:40;98027.03;;;18.87;100.00
22580;BME280;11456;47.030;15.396;2022-09-06T00:06:08;98016.81;;;18.95;100.00
22580;BME280;11456;47.030;15.396;2022-09-06T00:08:35;98016.81;;;18.95;100.00
22580;BME280;11456;47.030;15.396;2022-09-06T00:11:01;98020.09;;;18.84;100.00
22580;BME280;11456;47.030;15.396;2022-09-06T00:13:29;98019.69;;;18.87;100.00
22580;BME280;11456;47.030;15.396;2022-09-06T00:15:55;98021.78;;;18.85;100.00
22580;BME280;11456;47.030;15.396;2022-09-06T00:18:22;98015.22;;;19.01;100.00
22580;BME280;11456;47.030;15.396;2022-09-06T00:20:49;98016.44;;;18.98;100.00
22580;BME280;11456;47.030;15.396;2022-09-06T00:23:15;98016.31;;;19.06;100.00
22580;BME280;11456;47.030;15.396;2022-09-06T00:25:42;98019.94;;;18.92;100.00
22580;BME280;11456;47.030;15.396;2022-09-06T00:28:08;98023.06;;;18.89;100.00
22580;BME280;11456;47.030;15.396;2022-09-06T00:30:35;98019.41;;;19.03;100.00
22580;BME280;11456;47.030;15.396;2022-09-06T00:33:01;98019.94;;;19.13;100.00
22580;BME280;11456;47.030;15.396;2022-09-06T00:35:28;98026.56;;;19.04;100.00
22580;BME280;11456;47.030;15.396;2022-09-06T00:37:55;98025.00;;;18.95;100.00
22580;BME280;11456;47.030;15.396;2022-09-06T00:40:22;98023.47;;;18.86;100.00
22580;BME280;11456;47.030;15.396;2022-09-06T00:42:49;98019.34;;;18.97;100.00
22580;BME280;11456;47.030;15.396;2022-09-06T00:45:16;98017.22;;;19.13;100.00
22580;BME280;11456;47.030;15.396;2022-09-06T00:47:42;98017.78;;;19.09;100.00
22580;BME280;11456;47.030;15.396;2022-09-06T00:50:09;98008.00;;;18.93;100.00
22580;BME280;11456;47.030;15.396;2022-09-06T00:52:37;98004.63;;;18.91;100.00
22580;BME280;11456;47.030;15.396;2022-09-06T00:55:05;98002.13;;;18.96;100.00
22580;BME280;11456;47.030;15.396;2022-09-06T00:57:31;97993.94;;;18.96;100.00
22580;BME280;11456;47.030;15.396;2022-09-06T00:59:58;97999.34;;;18.90;100.00
22580;BME280;11456;47.030;15.396;2022-09-06T01:02:25;97997.34;;;18.98;100.00
22580;BME280;11456;47.030;15.396;2022-09-06T01:04:52;97994.84;;;18.82;100.00
22580;BME280;11456;47.030;15.396;2022-09-06T01:28:59;97973.69;;;18.63;100.00
22580;BME280;11456;47.030;15.396;2022-09-06T01:31:43;97971.44;;;18.66;100.00
22580;BME280;11456;47.030;15.396;2022-09-06T01:34:30;97968.34;;;18.76;100.00
22580;BME280;11456;47.030;15.396;2022-09-06T01:37:01;97965.63;;;18.76;100.00
22580;BME280;11456;47.030;15.396;2022-09-06T01:39:36;97963.44;;;18.65;100.00
22580;BME280;11456;47.030;15.396;2022-09-06T01:42:04;97962.47;;;18.72;100.00
22580;BME280;11456;47.030;15.396;2022-09-06T01:44:32;97961.63;;;18.72;100.00
22580;BME280;11456;47.030;15.396;2022-09-06T01:59:34;97966.66;;;18.54;100.00
22580;BME280;11456;47.030;15.396;2022-09-06T02:02:14;97967.34;;;18.56;100.00
22580;BME280;11456;47.030;15.396;2022-09-06T02:04:45;97967.69;;;18.53;100.00
22580;BME280;11456;47.030;15.396;2022-09-06T02:07:24;97964.53;;;18.49;100.00
22580;BME280;11456;47.030;15.396;2022-09-06T02:09:52;97962.13;;;18.39;100.00
22580;BME280;11456;47.030;15.396;2022-09-06T02:12:21;97956.91;;;18.44;100.00
22580;BME280;11456;47.030;15.396;2022-09-06T02:14:53;97959.06;;;18.28;100.00
22580;BME280;11456;47.030;15.396;2022-09-06T02:17:22;97950.03;;;18.27;100.00
22580;BME280;11456;47.030;15.396;2022-09-06T02:19:53;97941.59;;;18.43;100.00
22580;BME280;11456;47.030;15.396;2022-09-06T02:22:21;97942.34;;;18.37;100.00
22580;BME280;11456;47.030;15.396;2022-09-06T02:24:49;97945.78;;;18.03;100.00
22580;BME280;11456;47.030;15.396;2022-09-06T02:27:18;97957.91;;;18.01;100.00
22580;BME280;11456;47.030;15.396;2022-09-06T02:29:44;97943.31;;;18.09;100.00
22580;BME280;11456;47.030;15.396;2022-09-06T02:32:12;97953.91;;;17.82;100.00
22580;BME280;11456;47.030;15.396;2022-09-06T02:34:40;97952.97;;;17.90;100.00
22580;BME280;11456;47.030;15.396;2022-09-06T02:37:09;97943.88;;;17.83;100.00
22580;BME280;11456;47.030;15.396;2022-09-06T02:39:37;97954.91;;;17.96;100.00
22580;BME280;11456;47.030;15.396;2022-09-06T02:42:03;97948.53;;;17.89;100.00
22580;BME280;11456;47.030;15.396;2022-09-06T02:44:31;97947.97;;;17.93;100.00
22580;BME280;11456;47.030;15.396;2022-09-06T02:46:58;97944.75;;;18.05;100.00
22580;BME280;11456;47.030;15.396;2022-09-06T02:49:26;97945.28;;;17.79;100.00
22580;BME280;11456;47.030;15.396;2022-09-06T02:51:53;97943.78;;;17.76;100.00
22580;BME280;11456;47.030;15.396;2022-09-06T02:54:19;97948.38;;;17.76;100.00
22580;BME280;11456;47.030;15.396;2022-09-06T02:56:46;97945.56;;;17.54;100.00
22580;BME280;11456;47.030;15.396;2022-09-06T02:59:17;97948.56;;;17.59;100.00
22580;BME280;11456;47.030;15.396;2022-09-06T03:01:44;97952.91;;;17.69;100.00
22580;BME280;11456;47.030;15.396;2022-09-06T03:04:10;97940.22;;;17.61;100.00
22580;BME280;11456;47.030;15.396;2022-09-06T03:06:37;97941.25;;;17.45;100.00
22580;BME280;11456;47.030;15.396;2022-09-06T03:09:04;97942.66;;;17.41;100.00
22580;BME280;11456;47.030;15.396;2022-09-06T03:11:30;97944.06;;;17.37;100.00
22580;BME280;11456;47.030;15.396;2022-09-06T03:13:57;97951.56;;;17.35;100.00
22580;BME280;11456;47.030;15.396;2022-09-06T03:16:23;97949.44;;;17.45;100.00
22580;BME280;11456;47.030;15.396;2022-09-06T03:18:50;97951.03;;;17.40;100.00
22580;BME280;11456;47.030;15.396;2022-09-06T03:21:16;97944.06;;;17.37;100.00
22580;BME280;11456;47.030;15.396;2022-09-06T03:23:43;97944.16;;;17.29;100.00
22580;BME280;11456;47.030;15.396;2022-09-06T03:26:11;97940.31;;;17.38;100.00
22580;BME280;11456;47.030;15.396;2022-09-06T03:28:37;97942.38;;;17.36;100.00
22580;BME280;11456;47.030;15.396;2022-09-06T03:31:04;97936.38;;;17.26;100.00
22580;BME280;11456;47.030;15.396;2022-09-06T03:33:31;97942.19;;;17.23;100.00
22580;BME280;11456;47.030;15.396;2022-09-06T03:35:58;97936.53;;;17.10;100.00
22580;BME280;11456;47.030;15.396;2022-09-06T03:38:26;97932.72;;;17.19;100.00
22580;BME280;11456;47.030;15.396;2022-09-06T03:40:53;97941.81;;;17.26;100.00
22580;BME280;11456;47.030;15.396;2022-09-06T03:43:20;97936.53;;;17.10;100.00
22580;BME280;11456;47.030;15.396;2022-09-06T03:45:49;97937.56;;;16.94;100.00
22580;BME280;11456;47.030;15.396;2022-09-06T03:48:16;97937.41;;;16.96;100.00
22580;BME280;11456;47.030;15.396;2022-09-06T03:50:44;97930.53;;;17.00;100.00
22580;BME280;11456;47.030;15.396;2022-09-06T03:53:11;97934.91;;;16.86;100.00
22580;BME280;11456;47.030;15.396;2022-09-06T03:55:38;97933.50;;;16.90;100.00
22580;BME280;11456;47.030;15.396;2022-09-06T03:58:04;97930.16;;;17.03;100.00
22580;BME280;11456;47.030;15.396;2022-09-06T04:00:31;97930.47;;;17.08;100.00
22580;BME280;11456;47.030;15.396;2022-09-06T04:02:58;97934.22;;;17.07;100.00
22580;BME280;11456;47.030;15.396;2022-09-06T04:05:27;97931.84;;;17.04;100.00
22580;BME280;11456;47.030;15.396;2022-09-06T04:07:53;97936.47;;;17.18;100.00
22580;BME280;11456;47.030;15.396;2022-09-06T04:10:20;97940.13;;;17.25;100.00
22580;BME280;11456;47.030;15.396;2022-09-06T04:12:46;97940.88;;;17.19;100.00
22580;BME280;11456;47.030;15.396;2022-09-06T04:15:13;97939.84;;;17.20;100.00
22580;BME280;11456;47.030;15.396;2022-09-06T04:17:43;97942.94;;;17.17;100.00
22580;BME280;11456;47.030;15.396;2022-09-06T04:20:11;97939.47;;;17.23;100.00
22580;BME280;11456;47.030;15.396;2022-09-06T04:22:38;97937.59;;;17.23;100.00
22580;BME280;11456;47.030;15.396;2022-09-06T04:25:04;97934.31;;;17.28;100.00
22580;BME280;11456;47.030;15.396;2022-09-06T04:27:31;97938.06;;;17.27;100.00
22580;BME280;11456;47.030;15.396;2022-09-06T04:29:58;97922.84;;;17.18;100.00
22580;BME280;11456;47.030;15.396;2022-09-06T04:32:24;97926.59;;;17.17;100.00
22580;BME280;11456;47.030;15.396;2022-09-06T04:34:51;97924.72;;;17.03;100.00
22580;BME280;11456;47.030;15.396;2022-09-06T04:37:17;97935.22;;;16.91;100.00
22580;BME280;11456;47.030;15.396;2022-09-06T04:39:45;97928.19;;;17.11;100.00
22580;BME280;11456;47.030;15.396;2022-09-06T04:42:12;97920.03;;;17.26;100.00
22580;BME280;11456;47.030;15.396;2022-09-06T04:44:39;97926.88;;;17.07;100.00
22580;BME280;11456;47.030;15.396;2022-09-06T04:47:07;97919.94;;;17.05;100.00
22580;BME280;11456;47.030;15.396;2022-09-06T04:49:37;97935.03;;;17.22;100.00
22580;BME280;11456;47.030;15.396;2022-09-06T04:52:04;97924.91;;;17.45;100.00
22580;BME280;11456;47.030;15.396;2022-09-06T04:54:30;97925.38;;;17.49;100.00
22580;BME280;11456;47.030;15.396;2022-09-06T04:56:57;97923.75;;;17.54;100.00
22580;BME280;11456;47.030;15.396;2022-09-06T04:59:24;97931.38;;;17.59;100.00
22580;BME280;11456;47.030;15.396;2022-09-06T05:01:50;97926.31;;;17.71;100.00
22580;BME280;11456;47.030;15.396;2022-09-06T05:04:17;97923.50;;;17.79;100.00
22580;BME280;11456;47.030;15.396;2022-09-06T05:06:43;97933.13;;;17.96;100.00
22580;BME280;11456;47.030;15.396;2022-09-06T05:09:10;97934.34;;;17.93;100.00
22580;BME280;11456;47.030;15.396;2022-09-06T05:11:37;97934.72;;;18.48;100.00
22580;BME280;11456;47.030;15.396;2022-09-06T05:14:03;97941.47;;;19.29;100.00
22580;BME280;11456;47.030;15.396;2022-09-06T05:16:30;97935.63;;;18.33;100.00
22580;BME280;11456;47.030;15.396;2022-09-06T05:18:56;97946.78;;;18.17;100.00
22580;BME280;11456;47.030;15.396;2022-09-06T05:21:23;97935.75;;;18.25;100.00
22580;BME280;11456;47.030;15.396;2022-09-06T05:23:50;97940.69;;;18.36;100.00
22580;BME280;11456;47.030;15.396;2022-09-06T05:26:21;97941.97;;;17.83;100.00
22580;BME280;11456;47.030;15.396;2022-09-06T05:28:48;97951.66;;;17.86;100.00
22580;BME280;11456;47.030;15.396;2022-09-06T05:31:28;97951.31;;;18.10;100.00
22580;BME280;11456;47.030;15.396;2022-09-06T05:33:55;97942.56;;;18.15;100.00
22580;BME280;11456;47.030;15.396;2022-09-06T05:36:23;97937.06;;;18.29;100.00
22580;BME280;11456;47.030;15.396;2022-09-06T05:38:50;97948.22;;;18.77;100.00
22580;BME280;11456;47.030;15.396;2022-09-06T05:41:17;97943.94;;;18.47;100.00
22580;BME280;11456;47.030;15.396;2022-09-06T05:43:44;97941.38;;;18.60;100.00
22580;BME280;11456;47.030;15.396;2022-09-06T05:46:11;97942.94;;;18.69;100.00
22580;BME280;11456;47.030;15.396;2022-09-06T05:48:38;97945.59;;;18.26;100.00
22580;BME280;11456;47.030;15.396;2022-09-06T05:51:11;97934.56;;;19.67;100.00
22580;BME280;11456;47.030;15.396;2022-09-06T05:53:39;97942.69;;;19.54;98.99
22580;BME280;11456;47.030;15.396;2022-09-06T05:56:06;97938.97;;;19.34;100.00
22580;BME280;11456;47.030;15.396;2022-09-06T05:58:33;97932.16;;;19.16;100.00
22580;BME280;11456;47.030;15.396;2022-09-06T06:01:33;97937.25;;;18.70;100.00
22580;BME280;11456;47.030;15.396;2022-09-06T06:03:53;97924.47;;;18.50;100.00
22580;BME280;11456;47.030;15.396;2022-09-06T06:06:20;97930.84;;;18.57;100.00
22580;BME280;11456;47.030;15.396;2022-09-06T06:08:47;97940.94;;;18.56;100.00
22580;BME280;11456;47.030;15.396;2022-09-06T06:11:14;97940.84;;;18.50;100.00
22580;BME280;11456;47.030;15.396;2022-09-06T06:13:41;97946.66;;;18.89;100.00
22580;BME280;11456;47.030;15.396;2022-09-06T06:16:09;97939.91;;;18.42;100.00
22580;BME280;11456;47.030;15.396;2022-09-06T06:18:36;97948.56;;;18.67;100.00
22580;BME280;11456;47.030;15.396;2022-09-06T06:23:33;97940.84;;;18.50;100.00
22580;BME280;11456;47.030;15.396;2022-09-06T06:25:59;97945.53;;;18.56;100.00
22580;BME280;11456;47.030;15.396;2022-09-06T06:28:26;97934.72;;;18.26;100.00
22580;BME280;11456;47.030;15.396;2022-09-06T06:30:53;97936.25;;;18.99;100.00
22580;BME280;11456;47.030;15.396;2022-09-06T06:33:19;97932.56;;;19.13;100.00
22580;BME280;11456;47.030;15.396;2022-09-06T06:35:56;97929.00;;;18.42;100.00
22580;BME280;11456;47.030;15.396;2022-09-06T06:38:22;97936.88;;;18.73;100.00
22580;BME280;11456;47.030;15.396;2022-09-06T06:40:49;97927.69;;;18.38;100.00
22580;BME280;11456;47.030;15.396;2022-09-06T06:43:20;97930.44;;;18.60;100.00
22580;BME280;11456;47.030;15.396;2022-09-06T06:45:47;97935.44;;;19.05;100.00
22580;BME280;11456;47.030;15.396;2022-09-06T06:48:15;97943.06;;;18.61;100.00
22580;BME280;11456;47.030;15.396;2022-09-06T06:50:42;97934.69;;;18.62;100.00
22580;BME280;11456;47.030;15.396;2022-09-06T06:53:08;97942.91;;;18.48;100.00
22580;BME280;11456;47.030;15.396;2022-09-06T06:55:35;97939.91;;;18.64;100.00
22580;BME280;11456;47.030;15.396;2022-09-06T06:58:01;97932.47;;;19.00;100.00
22580;BME280;11456;47.030;15.396;2022-09-06T07:00:29;97937.88;;;19.56;100.00
22580;BME280;11456;47.030;15.396;2022-09-06T07:02:55;97932.25;;;20.25;100.00
22580;BME280;11456;47.030;15.396;2022-09-06T07:05:22;97936.03;;;20.24;100.00
22580;BME280;11456;47.030;15.396;2022-09-06T07:08:09;97931.97;;;20.74;97.75
22580;BME280;11456;47.030;15.396;2022-09-06T07:10:36;97939.06;;;20.55;99.78
22580;BME280;11456;47.030;15.396;2022-09-06T07:13:02;97937.44;;;20.67;97.50
22580;BME280;11456;47.030;15.396;2022-09-06T07:15:29;97941.78;;;21.60;93.50
22580;BME280;11456;47.030;15.396;2022-09-06T07:17:56;97947.19;;;22.31;88.85
22580;BME280;11456;47.030;15.396;2022-09-06T07:20:23;97932.25;;;22.59;84.68
22580;BME280;11456;47.030;15.396;2022-09-06T07:23:02;97928.09;;;22.50;84.36
22580;BME280;11456;47.030;15.396;2022-09-06T07:25:50;97936.88;;;21.82;88.80
22580;BME280;11456;47.030;15.396;2022-09-06T07:28:17;97934.81;;;22.54;84.83
22580;BME280;11456;47.030;15.396;2022-09-06T07:30:44;97944.84;;;22.73;81.92
22580;BME280;11456;47.030;15.396;2022-09-06T07:33:11;97944.31;;;22.89;81.47
22580;BME280;11456;47.030;15.396;2022-09-06T07:35:37;97946.88;;;22.84;82.71
22580;BME280;11456;47.030;15.396;2022-09-06T07:38:04;97947.19;;;23.44;78.25
22580;BME280;11456;47.030;15.396;2022-09-06T07:40:30;97951.69;;;23.13;80.48
22580;BME280;11456;47.030;15.396;2022-09-06T07:43:00;97952.56;;;22.89;79.53
22580;BME280;11456;47.030;15.396;2022-09-06T07:45:26;97946.97;;;22.71;80.74
22580;BME280;11456;47.030;15.396;2022-09-06T07:47:54;97949.28;;;22.99;80.48
22580;BME280;11456;47.030;15.396;2022-09-06T07:50:26;97942.34;;;23.64;79.08
22580;BME280;11456;47.030;15.396;2022-09-06T07:53:13;97942.63;;;24.29;73.87
22580;BME280;11456;47.030;15.396;2022-09-06T07:55:44;97943.72;;;23.55;75.54
22580;BME280;11456;47.030;15.396;2022-09-06T07:58:11;97941.56;;;24.12;74.54
22580;BME280;11456;47.030;15.396;2022-09-06T08:00:38;97941.66;;;24.05;75.03
22580;BME280;11456;47.030;15.396;2022-09-06T08:03:06;97941.28;;;23.47;74.46
22580;BME280;11456;47.030;15.396;2022-09-06T08:05:33;97943.50;;;23.32;76.13
22580;BME280;11456;47.030;15.396;2022-09-06T08:08:19;97947.94;;;23.08;78.46
22580;BME280;11456;47.030;15.396;2022-09-06T08:11:06;97942.34;;;23.64;75.64
22580;BME280;11456;47.030;15.396;2022-09-06T08:13:33;97944.75;;;24.45;72.96
22580;BME280;11456;47.030;15.396;2022-09-06T08:16:01;97951.03;;;24.16;72.94
22580;BME280;11456;47.030;15.396;2022-09-06T08:18:28;97944.69;;;24.15;70.03
22580;BME280;11456;47.030;15.396;2022-09-06T08:20:54;97941.81;;;25.00;68.75
22580;BME280;11456;47.030;15.396;2022-09-06T08:23:21;97934.16;;;24.72;69.92
22580;BME280;11456;47.030;15.396;2022-09-06T08:25:54;97934.47;;;24.52;70.90
22580;BME280;11456;47.030;15.396;2022-09-06T08:28:22;97935.72;;;25.56;67.04
22580;BME280;11456;47.030;15.396;2022-09-06T08:30:53;97939.47;;;24.85;68.81
22580;BME280;11456;47.030;15.396;2022-09-06T08:33:20;97934.84;;;24.26;71.19
22580;BME280;11456;47.030;15.396;2022-09-06T08:35:54;97929.84;;;25.29;66.12
22580;BME280;11456;47.030;15.396;2022-09-06T08:38:21;97935.72;;;25.56;64.69
22580;BME280;11456;47.030;15.396;2022-09-06T08:40:49;97922.53;;;25.11;65.46
22580;BME280;11456;47.030;15.396;2022-09-06T08:43:16;97928.28;;;25.45;63.51
22580;BME280;11456;47.030;15.396;2022-09-06T08:45:43;97931.13;;;25.03;66.68
22580;BME280;11456;47.030;15.396;2022-09-06T08:48:10;97922.19;;;25.08;68.49
22580;BME280;11456;47.030;15.396;2022-09-06T08:50:39;97920.84;;;25.10;66.94
22580;BME280;11456;47.030;15.396;2022-09-06T08:53:10;97928.88;;;25.35;65.37
22580;BME280;11456;47.030;15.396;2022-09-06T09:00:52;97927.44;;;25.44;65.98
22580;BME280;11456;47.030;15.396;2022-09-06T09:03:25;97924.13;;;25.66;63.10
22580;BME280;11456;47.030;15.396;2022-09-06T09:05:56;97920.38;;;26.12;62.51
22580;BME280;11456;47.030;15.396;2022-09-06T09:16:09;97902.19;;;26.39;60.73
22580;BME280;11456;47.030;15.396;2022-09-06T09:18:37;97908.47;;;25.83;62.23
22580;BME280;11456;47.030;15.396;2022-09-06T09:21:05;97903.69;;;26.30;60.46
22580;BME280;11456;47.030;15.396;2022-09-06T09:23:31;97909.00;;;26.93;57.85
22580;BME280;11456;47.030;15.396;2022-09-06T09:25:59;97900.28;;;27.18;54.13
22580;BME280;11456;47.030;15.396;2022-09-06T09:28:27;97898.56;;;27.67;53.08
22580;BME280;11456;47.030;15.396;2022-09-06T09:30:54;97899.25;;;27.41;52.86
22580;BME280;11456;47.030;15.396;2022-09-06T09:35:51;97888.88;;;27.31;54.17
22580;BME280;11456;47.030;15.396;2022-09-06T09:38:19;97892.56;;;27.75;53.17
22580;BME280;11456;47.030;15.396;2022-09-06T09:43:18;97881.44;;;27.70;54.54
22580;BME280;11456;47.030;15.396;2022-09-06T09:45:45;97875.13;;;28.40;50.23
22580;BME280;11456;47.030;15.396;2022-09-06T09:48:25;97868.56;;;28.03;51.44
22580;BME280;11456;47.030;15.396;2022-09-06T09:50:53;97861.69;;;27.62;51.51
22580;BME280;11456;47.030;15.396;2022-09-06T09:53:21;97871.69;;;27.84;52.09
22580;BME280;11456;47.030;15.396;2022-09-06T09:55:53;97853.63;;;28.25;50.64
22580;BME280;11456;47.030;15.396;2022-09-06T10:00:47;97854.75;;;28.56;50.16
22580;BME280;11456;47.030;15.396;2022-09-06T10:03:33;97853.59;;;29.11;48.28
22580;BME280;11456;47.030;15.396;2022-09-06T10:06:00;97849.00;;;27.10;54.84
22580;BME280;11456;47.030;15.396;2022-09-06T10:08:29;97838.50;;;28.38;51.07
22580;BME280;11456;47.030;15.396;2022-09-06T10:10:57;97843.63;;;29.15;49.24
22580;BME280;11456;47.030;15.396;2022-09-06T10:13:24;97839.34;;;29.34;47.86
22580;BME280;11456;47.030;15.396;2022-09-06T10:15:55;97835.44;;;28.13;52.98
22580;BME280;11456;47.030;15.396;2022-09-06T10:18:31;97826.66;;;29.96;47.07
22580;BME280;11456;47.030;15.396;2022-09-06T10:20:59;97834.16;;;29.43;48.03
22580;BME280;11456;47.030;15.396;2022-09-06T10:28:46;97837.00;;;29.21;47.57
22580;BME280;11456;47.030;15.396;2022-09-06T10:31:29;97835.50;;;29.93;46.09
22580;BME280;11456;47.030;15.396;2022-09-06T10:36:51;97833.81;;;28.97;50.27
22580;BME280;11456;47.030;15.396;2022-09-06T10:39:29;97828.38;;;28.22;52.18
22580;BME280;11456;47.030;15.396;2022-09-06T10:42:16;97828.06;;;29.09;49.31
22580;BME280;11456;47.030;15.396;2022-09-06T10:44:51;97823.19;;;31.01;42.55
22580;BME280;11456;47.030;15.396;2022-09-06T10:47:22;97825.38;;;28.55;48.25
22580;BME280;11456;47.030;15.396;2022-09-06T10:49:55;97826.53;;;30.68;43.59
22580;BME280;11456;47.030;15.396;2022-09-06T10:52:26;97826.41;;;30.02;45.89
22580;BME280;11456;47.030;15.396;2022-09-06T10:54:57;97820.53;;;29.41;47.38
22580;BME280;11456;47.030;15.396;2022-09-06T10:57:33;97820.38;;;31.37;44.77
22580;BME280;11456;47.030;15.396;2022-09-06T11:00:21;97807.88;;;30.99;47.07
22580;BME280;11456;47.030;15.396;2022-09-06T11:02:50;97809.59;;;32.00;40.20
22580;BME280;11456;47.030;15.396;2022-09-06T11:05:42;97805.25;;;32.72;39.67
22580;BME280;11456;47.030;15.396;2022-09-06T11:08:11;97812.31;;;31.35;42.77
22580;BME280;11456;47.030;15.396;2022-09-06T11:11:03;97810.63;;;30.48;44.45
22580;BME280;11456;47.030;15.396;2022-09-06T11:13:32;97810.38;;;31.00;42.71
22580;BME280;11456;47.030;15.396;2022-09-06T11:16:02;97800.13;;;31.06;43.17
22580;BME280;11456;47.030;15.396;2022-09-06T11:23:50;97790.09;;;30.54;42.35
22580;BME280;11456;47.030;15.396;2022-09-06T11:26:30;97790.88;;;31.36;42.35
22580;BME280;11456;47.030;15.396;2022-09-06T11:29:00;97784.25;;;30.81;43.39
22580;BME280;11456;47.030;15.396;2022-09-06T11:31:31;97782.81;;;31.24;43.03
22580;BME280;11456;47.030;15.396;2022-09-06T11:34:26;97790.00;;;31.56;41.14
22580;BME280;11456;47.030;15.396;2022-09-06T11:36:54;97779.59;;;29.74;46.58
22580;BME280;11456;47.030;15.396;2022-09-06T11:39:26;97777.88;;;31.11;43.30
22580;BME280;11456;47.030;15.396;2022-09-06T11:52:55;97760.31;;;31.00;44.28
22580;BME280;11456;47.030;15.396;2022-09-06T11:56:10;97762.53;;;31.29;43.42
22580;BME280;11456;47.030;15.396;2022-09-06T12:00:44;97758.47;;;31.70;42.70
22580;BME280;11456;47.030;15.396;2022-09-06T12:08:45;97750.28;;;31.30;42.72
22580;BME280;11456;47.030;15.396;2022-09-06T12:21:58;97738.63;;;31.02;42.24
22580;BME280;11456;47.030;15.396;2022-09-06T12:27:16;97727.97;;;29.73;44.88
22580;BME280;11456;47.030;15.396;2022-09-06T12:30:04;97728.94;;;28.89;47.36
22580;BME280;11456;47.030;15.396;2022-09-06T12:32:44;97718.38;;;28.49;48.63
22580;BME280;11456;47.030;15.396;2022-09-06T12:35:16;97712.63;;;28.24;48.72
22580;BME280;11456;47.030;15.396;2022-09-06T12:38:06;97708.72;;;29.51;45.95
22580;BME280;11456;47.030;15.396;2022-09-06T12:40:34;97716.00;;;29.62;45.12
22580;BME280;11456;47.030;15.396;2022-09-06T12:43:03;97713.81;;;29.84;44.82
22580;BME280;11456;47.030;15.396;2022-09-06T12:45:30;97713.41;;;29.40;47.50
22580;BME280;11456;47.030;15.396;2022-09-06T12:48:07;97709.19;;;30.25;44.21
22580;BME280;11456;47.030;15.396;2022-09-06T12:50:34;97702.50;;;30.11;43.54
22580;BME280;11456;47.030;15.396;2022-09-06T12:53:02;97708.09;;;30.57;42.63
22580;BME280;11456;47.030;15.396;2022-09-06T12:55:36;97687.97;;;31.21;42.72
22580;BME280;11456;47.030;15.396;2022-09-06T12:58:03;97688.53;;;31.23;41.24
22580;BME280;11456;47.030;15.396;2022-09-06T13:00:44;97684.75;;;30.07;43.05
22580;BME280;11456;47.030;15.396;2022-09-06T13:03:22;97681.22;;;29.34;45.18
22580;BME280;11456;47.030;15.396;2022-09-06T13:05:51;97668.34;;;28.66;47.96
22580;BME280;11456;47.030;15.396;2022-09-06T13:08:23;97675.41;;;28.84;46.26
22580;BME280;11456;47.030;15.396;2022-09-06T13:10:51;97682.91;;;29.45;45.57
22580;BME280;11456;47.030;15.396;2022-09-06T13:13:19;97678.91;;;29.26;45.21
22580;BME280;11456;47.030;15.396;2022-09-06T13:15:47;97682.41;;;29.01;45.83
22580;BME280;11456;47.030;15.396;2022-09-06T13:18:18;97673.56;;;28.99;45.62
22580;BME280;11456;47.030;15.396;2022-09-06T13:20:56;97675.56;;;28.30;47.74
22580;BME280;11456;47.030;15.396;2022-09-06T13:23:22;97678.41;;;28.08;48.16
22580;BME280;11456;47.030;15.396;2022-09-06T13:25:52;97679.50;;;28.39;47.62
22580;BME280;11456;47.030;15.396;2022-09-06T13:28:22;97676.31;;;29.67;44.17
22580;BME280;11456;47.030;15.396;2022-09-06T13:31:00;97673.00;;;29.70;43.38
22580;BME280;11456;47.030;15.396;2022-09-06T13:33:28;97663.47;;;29.40;43.90
22580;BME280;11456;47.030;15.396;2022-09-06T13:41:04;97662.44;;;28.52;46.53
22580;BME280;11456;47.030;15.396;2022-09-06T13:43:44;97664.19;;;28.26;47.22
22580;BME280;11456;47.030;15.396;2022-09-06T13:46:11;97652.44;;;27.82;48.28
22580;BME280;11456;47.030;15.396;2022-09-06T13:48:37;97654.13;;;28.52;48.14
22580;BME280;11456;47.030;15.396;2022-09-06T13:51:10;97646.84;;;29.45;44.75
22580;BME280;11456;47.030;15.396;2022-09-06T13:53:36;97645.16;;;28.77;45.05
22580;BME280;11456;47.030;15.396;2022-09-06T13:56:05;97644.91;;;29.46;44.23
22580;BME280;11456;47.030;15.396;2022-09-06T13:58:34;97640.03;;;30.14;41.83
22580;BME280;11456;47.030;15.396;2022-09-06T14:01:01;97640.84;;;30.55;41.62
22580;BME280;11456;47.030;15.396;2022-09-06T14:03:28;97635.25;;;30.60;41.53
22580;BME280;11456;47.030;15.396;2022-09-06T14:05:56;97636.41;;;30.49;41.22
22580;BME280;11456;47.030;15.396;2022-09-06T14:08:23;97629.19;;;30.17;41.85
22580;BME280;11456;47.030;15.396;2022-09-06T14:10:49;97630.31;;;30.21;43.00
22580;BME280;11456;47.030;15.396;2022-09-06T14:13:16;97633.06;;;30.26;43.05
22580;BME280;11456;47.030;15.396;2022-09-06T14:15:44;97632.44;;;30.80;42.91
22580;BME280;11456;47.030;15.396;2022-09-06T14:18:10;97635.03;;;30.01;44.43
22580;BME280;11456;47.030;15.396;2022-09-06T14:20:40;97643.31;;;29.75;45.29
22580;BME280;11456;47.030;15.396;2022-09-06T14:23:07;97634.06;;;29.39;45.77
22580;BME280;11456;47.030;15.396;2022-09-06T14:25:34;97634.53;;;29.26;45.94
22580;BME280;11456;47.030;15.396;2022-09-06T14:28:02;97638.50;;;29.35;46.32
22580;BME280;11456;47.030;15.396;2022-09-06T14:30:29;97637.28;;;29.16;47.10
22580;BME280;11456;47.030;15.396;2022-09-06T14:32:55;97635.84;;;28.56;49.98
22580;BME280;11456;47.030;15.396;2022-09-06T14:35:22;97638.03;;;28.91;48.63
22580;BME280;11456;47.030;15.396;2022-09-06T14:37:48;97641.00;;;28.80;50.24
22580;BME280;11456;47.030;15.396;2022-09-06T14:40:24;97635.81;;;28.51;49.87
22580;BME280;11456;47.030;15.396;2022-09-06T14:42:51;97640.66;;;27.97;51.31
22580;BME280;11456;47.030;15.396;2022-09-06T14:45:18;97636.88;;;28.08;52.61